MST,Max TemperatureF,Mean TemperatureF,Min TemperatureF,Max Dew PointF,MeanDew PointF,Min DewpointF,Max Humidity, Mean Humidity, Min Humidity, Max Sea Level PressureIn, Mean Sea Level PressureIn, Min Sea Level PressureIn, Max VisibilityMiles, Mean VisibilityMiles, Min VisibilityMiles, Max Wind SpeedMPH, Mean Wind SpeedMPH, Max Gust SpeedMPH,PrecipitationIn, CloudCover, Events, WindDirDegrees
2012-11-1,39,35,30,37,33,27,100,93,85,30.09,29.93,29.84,10,6,0,25,16,32,0.01,8,Fog,101
2012-11-2,40,37,33,37,35,28,100,85,70,30.23,30.01,29.87,10,6,0,21,9,25,0.02,8,Fog-Rain,352
2012-11-3,37,35,32,34,29,25,92,82,72,30.25,30.18,30.00,10,10,8,18,11,22,T,8,,115
2012-11-4,49,39,29,37,32,28,100,81,61,30.32,30.12,29.98,10,5,0,22,10,28,0.02,3,Fog-Rain,338
2012-11-5,69,50,30,43,33,27,100,69,37,30.19,30.04,29.81,10,8,0,45,13,59,0.00,3,Fog,107
2012-11-6,51,38,25,31,27,24,92,65,38,30.28,30.16,29.92,10,10,10,18,7,21,0.00,3,,3
2012-11-7,55,45,35,41,33,26,85,70,54,30.01,29.80,29.66,10,10,10,28,10,36,0.03,3,Rain,47
2012-11-8,36,32,28,30,27,24,92,84,75,30.18,30.07,29.96,10,6,0,31,14,37,0.20,8,Fog-Snow,56
2012-11-9,28,23,18,24,20,14,88,83,77,30.06,29.94,29.86,10,3,0,33,22,48,0.17,8,Fog-Rain-Snow,78
2012-11-10,18,13,8,14,9,4,88,84,80,30.14,29.99,29.89,10,2,0,22,13,25,0.23,8,Fog-Snow,329
2012-11-11,12,3,-7,5,1,-9,91,81,70,30.27,30.14,29.96,10,7,2,23,12,28,0.01,5,Snow,299
2012-11-12,20,6,-8,15,3,-11,100,84,67,30.28,30.24,30.19,10,10,9,6,1,6,0.00,2,,94
2012-11-13,32,22,12,25,17,11,100,89,78,30.23,30.16,30.05,10,7,0,9,3,9,0.00,0,Fog,139
2012-11-14,37,27,17,27,20,16,100,82,64,30.33,30.09,29.99,10,5,0,10,5,13,0.00,0,Fog,121
2012-11-15,32,21,9,27,15,7,100,92,84,30.37,30.26,30.11,10,5,0,16,10,18,0.00,1,Fog,101
2012-11-16,37,27,17,29,22,16,96,84,72,30.07,30.03,30.01,10,10,10,16,6,18,0.00,1,,99
2012-11-17,37,29,21,31,27,21,100,91,82,30.07,29.99,29.84,10,10,8,17,9,20,0.00,0,,109
2012-11-18,40,32,23,32,27,20,92,84,76,30.07,29.87,29.73,10,10,10,18,9,21,0.00,0,,126
2012-11-19,44,33,21,33,28,19,96,79,62,30.09,30.01,29.86,10,10,10,15,11,22,0.00,0,,124
2012-11-20,46,40,33,36,33,29,89,74,58,29.88,29.84,29.80,10,10,10,14,8,15,0.00,3,,120
2012-11-21,43,37,30,37,33,27,100,88,76,29.94,29.76,29.67,10,10,7,20,8,23,T,5,Rain,314
2012-11-22,30,20,9,27,13,5,92,77,61,30.67,30.30,29.86,10,9,2,31,14,38,T,6,Snow,318
2012-11-23,27,18,8,21,13,4,84,76,68,30.64,30.36,29.99,10,10,10,23,13,26,0.00,3,,105
2012-11-24,38,29,20,29,24,19,100,85,70,30.10,30.00,29.83,10,9,0,18,6,23,T,3,Fog-Rain,306
2012-11-25,22,15,8,19,13,5,100,81,62,30.41,30.13,29.98,10,6,0,13,5,16,0.00,4,Fog,325
2012-11-26,30,19,8,25,16,5,96,86,76,30.42,30.23,30.09,10,6,0,9,2,10,0.00,5,Fog,26
2012-11-27,24,18,12,21,14,9,96,90,84,30.27,30.16,30.07,10,5,0,12,4,13,0.00,2,Fog,357
2012-11-28,33,26,18,25,19,15,96,83,69,30.15,30.08,29.91,10,10,7,22,7,26,0.00,1,,84
2012-11-29,27,23,19,23,19,17,100,91,81,30.02,29.94,29.86,10,5,1,21,13,26,T,6,,101
2012-11-30,37,29,20,24,19,17,92,88,84,29.90,29.84,29.78,10,8,7,22,15,26,0.04,2,,104